sensor_id;sensor_type;location;lat;lon;timestamp;temperature;humidity
20750;DHT22;10535;50.664;4.564;2023-12-20T00:01:00;6.70;99.90
20750;DHT22;10535;50.664;4.564;2023-12-20T00:03:26;6.70;99.90
20750;DHT22;10535;50.664;4.564;2023-12-20T00:05:52;6.70;99.90
20750;DHT22;10535;50.664;4.564;2023-12-20T00:08:17;6.60;99.90
20750;DHT22;10535;50.664;4.564;2023-12-20T00:10:44;6.60;99.90
20750;DHT22;10535;50.664;4.564;2023-12-20T00:13:10;6.60;99.90
20750;DHT22;10535;50.664;4.564;2023-12-20T00:15:36;6.60;99.90
20750;DHT22;10535;50.664;4.564;2023-12-20T00:18:01;6.50;99.90
20750;DHT22;10535;50.664;4.564;2023-12-20T00:20:28;6.50;99.90
20750;DHT22;10535;50.664;4.564;2023-12-20T00:22:56;6.40;99.90
20750;DHT22;10535;50.664;4.564;2023-12-20T00:25:23;6.40;99.90
20750;DHT22;10535;50.664;4.564;2023-12-20T00:27:49;6.40;99.90
20750;DHT22;10535;50.664;4.564;2023-12-20T00:30:14;6.40;99.90
20750;DHT22;10535;50.664;4.564;2023-12-20T00:32:41;6.40;99.90
20750;DHT22;10535;50.664;4.564;2023-12-20T00:35:12;6.50;99.90
20750;DHT22;10535;50.664;4.564;2023-12-20T00:37:38;6.50;99.90
20750;DHT22;10535;50.664;4.564;2023-12-20T00:40:04;6.60;99.90
20750;DHT22;10535;50.664;4.564;2023-12-20T00:42:30;6.60;99.90
20750;DHT22;10535;50.664;4.564;2023-12-20T00:44:56;6.60;99.90
20750;DHT22;10535;50.664;4.564;2023-12-20T00:47:21;6.70;99.90
20750;DHT22;10535;50.664;4.564;2023-12-20T00:49:47;6.60;99.90
20750;DHT22;10535;50.664;4.564;2023-12-20T00:52:13;6.50;99.90
20750;DHT22;10535;50.664;4.564;2023-12-20T00:54:39;6.50;99.90
20750;DHT22;10535;50.664;4.564;2023-12-20T00:57:05;6.60;99.90
20750;DHT22;10535;50.664;4.564;2023-12-20T00:59:30;6.60;99.90
20750;DHT22;10535;50.664;4.564;2023-12-20T01:01:56;6.60;99.90
20750;DHT22;10535;50.664;4.564;2023-12-20T01:04:23;6.60;99.90
20750;DHT22;10535;50.664;4.564;2023-12-20T01:06:48;6.70;99.90
20750;DHT22;10535;50.664;4.564;2023-12-20T01:09:14;6.80;99.90
20750;DHT22;10535;50.664;4.564;2023-12-20T01:11:40;6.60;99.90
20750;DHT22;10535;50.664;4.564;2023-12-20T01:14:05;6.70;99.90
20750;DHT22;10535;50.664;4.564;2023-12-20T01:16:31;6.70;99.90
20750;DHT22;10535;50.664;4.564;2023-12-20T01:18:56;6.60;99.90
20750;DHT22;10535;50.664;4.564;2023-12-20T01:21:22;6.60;99.90
20750;DHT22;10535;50.664;4.564;2023-12-20T01:23:48;6.50;99.90
20750;DHT22;10535;50.664;4.564;2023-12-20T01:26:14;6.50;99.90
20750;DHT22;10535;50.664;4.564;2023-12-20T01:28:40;6.40;99.90
20750;DHT22;10535;50.664;4.564;2023-12-20T01:31:06;6.30;99.90
20750;DHT22;10535;50.664;4.564;2023-12-20T01:33:31;6.20;99.90
20750;DHT22;10535;50.664;4.564;2023-12-20T01:35:57;6.30;99.90
20750;DHT22;10535;50.664;4.564;2023-12-20T01:38:22;6.30;99.90
20750;DHT22;10535;50.664;4.564;2023-12-20T01:40:48;6.20;99.90
20750;DHT22;10535;50.664;4.564;2023-12-20T01:43:15;6.20;99.90
20750;DHT22;10535;50.664;4.564;2023-12-20T01:45:41;6.30;99.90
20750;DHT22;10535;50.664;4.564;2023-12-20T01:48:08;6.20;99.90
20750;DHT22;10535;50.664;4.564;2023-12-20T01:50:36;6.20;99.90
20750;DHT22;10535;50.664;4.564;2023-12-20T01:53:04;6.30;99.90
20750;DHT22;10535;50.664;4.564;2023-12-20T01:55:32;6.30;99.90
20750;DHT22;10535;50.664;4.564;2023-12-20T01:58:00;6.20;99.90
20750;DHT22;10535;50.664;4.564;2023-12-20T02:00:28;6.20;99.90
20750;DHT22;10535;50.664;4.564;2023-12-20T02:02:55;6.20;99.90
20750;DHT22;10535;50.664;4.564;2023-12-20T02:05:21;6.20;99.90
20750;DHT22;10535;50.664;4.564;2023-12-20T02:07:47;6.20;99.90
20750;DHT22;10535;50.664;4.564;2023-12-20T02:10:13;6.20;99.90
20750;DHT22;10535;50.664;4.564;2023-12-20T02:12:39;6.10;99.90
20750;DHT22;10535;50.664;4.564;2023-12-20T02:15:05;6.10;99.90
20750;DHT22;10535;50.664;4.564;2023-12-20T02:17:32;6.00;99.90
20750;DHT22;10535;50.664;4.564;2023-12-20T02:19:58;6.00;99.90
20750;DHT22;10535;50.664;4.564;2023-12-20T02:22:23;6.00;99.90
20750;DHT22;10535;50.664;4.564;2023-12-20T02:24:49;6.00;99.90
20750;DHT22;10535;50.664;4.564;2023-12-20T02:27:15;5.90;99.90
20750;DHT22;10535;50.664;4.564;2023-12-20T02:29:43;5.90;99.90
20750;DHT22;10535;50.664;4.564;2023-12-20T02:32:09;5.90;99.90
20750;DHT22;10535;50.664;4.564;2023-12-20T02:34:34;5.90;99.90
20750;DHT22;10535;50.664;4.564;2023-12-20T02:37:00;5.80;99.90
20750;DHT22;10535;50.664;4.564;2023-12-20T02:39:25;5.90;99.90
20750;DHT22;10535;50.664;4.564;2023-12-20T02:41:51;5.80;99.90
20750;DHT22;10535;50.664;4.564;2023-12-20T02:44:17;5.80;99.90
20750;DHT22;10535;50.664;4.564;2023-12-20T02:46:42;5.90;99.90
20750;DHT22;10535;50.664;4.564;2023-12-20T02:49:08;6.00;99.90
20750;DHT22;10535;50.664;4.564;2023-12-20T02:51:33;6.00;99.90
20750;DHT22;10535;50.664;4.564;2023-12-20T02:54:04;6.00;99.90
20750;DHT22;10535;50.664;4.564;2023-12-20T02:56:29;5.90;99.90
20750;DHT22;10535;50.664;4.564;2023-12-20T02:58:55;5.80;99.90
20750;DHT22;10535;50.664;4.564;2023-12-20T03:01:20;5.80;99.90
20750;DHT22;10535;50.664;4.564;2023-12-20T03:03:46;5.80;99.90
20750;DHT22;10535;50.664;4.564;2023-12-20T03:06:18;6.00;99.90
20750;DHT22;10535;50.664;4.564;2023-12-20T03:08:44;6.00;99.90
20750;DHT22;10535;50.664;4.564;2023-12-20T03:11:10;6.00;99.90
20750;DHT22;10535;50.664;4.564;2023-12-20T03:13:36;6.00;99.90
20750;DHT22;10535;50.664;4.564;2023-12-20T03:16:07;5.90;99.90
20750;DHT22;10535;50.664;4.564;2023-12-20T03:18:33;6.00;99.90
20750;DHT22;10535;50.664;4.564;2023-12-20T03:20:58;6.10;99.90
20750;DHT22;10535;50.664;4.564;2023-12-20T03:23:24;6.00;99.90
20750;DHT22;10535;50.664;4.564;2023-12-20T03:25:50;6.00;99.90
20750;DHT22;10535;50.664;4.564;2023-12-20T03:28:15;5.90;99.90
20750;DHT22;10535;50.664;4.564;2023-12-20T03:30:41;6.00;99.90
20750;DHT22;10535;50.664;4.564;2023-12-20T03:33:07;6.00;99.90
20750;DHT22;10535;50.664;4.564;2023-12-20T03:35:33;6.10;99.90
20750;DHT22;10535;50.664;4.564;2023-12-20T03:37:58;6.30;99.90
20750;DHT22;10535;50.664;4.564;2023-12-20T03:40:25;6.30;99.90
20750;DHT22;10535;50.664;4.564;2023-12-20T03:42:51;6.40;99.90
20750;DHT22;10535;50.664;4.564;2023-12-20T03:45:17;6.30;99.90
20750;DHT22;10535;50.664;4.564;2023-12-20T03:47:42;6.50;99.90
20750;DHT22;10535;50.664;4.564;2023-12-20T03:50:08;6.50;99.90
20750;DHT22;10535;50.664;4.564;2023-12-20T03:52:34;6.50;99.90
20750;DHT22;10535;50.664;4.564;2023-12-20T03:54:59;6.40;99.90
20750;DHT22;10535;50.664;4.564;2023-12-20T03:57:25;6.40;99.90
20750;DHT22;10535;50.664;4.564;2023-12-20T03:59:51;6.40;99.90
20750;DHT22;10535;50.664;4.564;2023-12-20T04:02:16;6.50;99.90
20750;DHT22;10535;50.664;4.564;2023-12-20T04:04:43;6.40;99.90
20750;DHT22;10535;50.664;4.564;2023-12-20T04:07:09;6.40;99.90
20750;DHT22;10535;50.664;4.564;2023-12-20T04:09:34;6.30;99.90
20750;DHT22;10535;50.664;4.564;2023-12-20T04:12:00;6.40;99.90
20750;DHT22;10535;50.664;4.564;2023-12-20T04:14:26;6.40;99.90
20750;DHT22;10535;50.664;4.564;2023-12-20T04:16:52;6.30;99.90
20750;DHT22;10535;50.664;4.564;2023-12-20T04:19:17;6.20;99.90
20750;DHT22;10535;50.664;4.564;2023-12-20T04:21:43;6.20;99.90
20750;DHT22;10535;50.664;4.564;2023-12-20T04:24:08;6.10;99.90
20750;DHT22;10535;50.664;4.564;2023-12-20T04:29:06;6.40;99.90
20750;DHT22;10535;50.664;4.564;2023-12-20T04:31:56;6.50;99.90
20750;DHT22;10535;50.664;4.564;2023-12-20T04:34:44;6.70;99.90
20750;DHT22;10535;50.664;4.564;2023-12-20T04:37:11;6.60;99.90
20750;DHT22;10535;50.664;4.564;2023-12-20T04:39:37;6.60;99.90
20750;DHT22;10535;50.664;4.564;2023-12-20T04:42:03;6.40;99.90
20750;DHT22;10535;50.664;4.564;2023-12-20T04:44:29;6.30;99.90
20750;DHT22;10535;50.664;4.564;2023-12-20T04:46:55;6.20;99.90
20750;DHT22;10535;50.664;4.564;2023-12-20T04:49:22;6.20;99.90
20750;DHT22;10535;50.664;4.564;2023-12-20T04:51:47;6.10;99.90
20750;DHT22;10535;50.664;4.564;2023-12-20T04:54:13;6.10;99.90
20750;DHT22;10535;50.664;4.564;2023-12-20T04:56:39;6.00;99.90
20750;DHT22;10535;50.664;4.564;2023-12-20T04:59:04;6.10;99.90
20750;DHT22;10535;50.664;4.564;2023-12-20T05:01:31;6.00;99.90
20750;DHT22;10535;50.664;4.564;2023-12-20T05:03:56;6.00;99.90
20750;DHT22;10535;50.664;4.564;2023-12-20T05:06:22;5.90;99.90
20750;DHT22;10535;50.664;4.564;2023-12-20T05:08:47;5.90;99.90
20750;DHT22;10535;50.664;4.564;2023-12-20T05:11:13;6.00;99.90
20750;DHT22;10535;50.664;4.564;2023-12-20T05:13:40;6.00;99.90
20750;DHT22;10535;50.664;4.564;2023-12-20T05:16:06;6.00;99.90
20750;DHT22;10535;50.664;4.564;2023-12-20T05:18:31;6.20;99.90
20750;DHT22;10535;50.664;4.564;2023-12-20T05:20:57;6.30;99.90
20750;DHT22;10535;50.664;4.564;2023-12-20T05:23:23;6.30;99.90
20750;DHT22;10535;50.664;4.564;2023-12-20T05:25:49;6.40;99.90
20750;DHT22;10535;50.664;4.564;2023-12-20T05:28:15;6.40;99.90
20750;DHT22;10535;50.664;4.564;2023-12-20T05:30:41;6.50;99.90
20750;DHT22;10535;50.664;4.564;2023-12-20T05:33:06;6.50;99.90
20750;DHT22;10535;50.664;4.564;2023-12-20T05:35:32;6.50;99.90
20750;DHT22;10535;50.664;4.564;2023-12-20T05:37:57;6.40;99.90
20750;DHT22;10535;50.664;4.564;2023-12-20T05:40:23;6.40;99.90
20750;DHT22;10535;50.664;4.564;2023-12-20T05:42:49;6.30;99.90
20750;DHT22;10535;50.664;4.564;2023-12-20T05:45:15;6.30;99.90
20750;DHT22;10535;50.664;4.564;2023-12-20T05:47:40;6.30;99.90
20750;DHT22;10535;50.664;4.564;2023-12-20T05:50:06;6.10;99.90
20750;DHT22;10535;50.664;4.564;2023-12-20T05:52:32;6.00;99.90
20750;DHT22;10535;50.664;4.564;2023-12-20T05:54:58;6.00;99.90
20750;DHT22;10535;50.664;4.564;2023-12-20T05:57:26;6.00;99.90
20750;DHT22;10535;50.664;4.564;2023-12-20T05:59:52;6.00;99.90
20750;DHT22;10535;50.664;4.564;2023-12-20T06:02:18;6.00;99.90
20750;DHT22;10535;50.664;4.564;2023-12-20T06:04:43;5.90;99.90
20750;DHT22;10535;50.664;4.564;2023-12-20T06:07:12;5.90;99.90
20750;DHT22;10535;50.664;4.564;2023-12-20T06:09:38;5.80;99.90
20750;DHT22;10535;50.664;4.564;2023-12-20T06:12:04;5.70;99.90
20750;DHT22;10535;50.664;4.564;2023-12-20T06:14:29;5.70;99.90
20750;DHT22;10535;50.664;4.564;2023-12-20T06:16:56;5.60;99.90
20750;DHT22;10535;50.664;4.564;2023-12-20T06:19:22;5.70;99.90
20750;DHT22;10535;50.664;4.564;2023-12-20T06:21:48;5.80;99.90
20750;DHT22;10535;50.664;4.564;2023-12-20T06:24:13;5.80;99.90
20750;DHT22;10535;50.664;4.564;2023-12-20T06:26:39;5.80;99.90
20750;DHT22;10535;50.664;4.564;2023-12-20T06:29:05;5.80;99.90
20750;DHT22;10535;50.664;4.564;2023-12-20T06:31:30;5.90;99.90
20750;DHT22;10535;50.664;4.564;2023-12-20T06:33:58;5.90;99.90
20750;DHT22;10535;50.664;4.564;2023-12-20T06:36:26;5.90;99.90
20750;DHT22;10535;50.664;4.564;2023-12-20T06:38:52;5.90;99.90
20750;DHT22;10535;50.664;4.564;2023-12-20T06:41:19;6.00;99.90
20750;DHT22;10535;50.664;4.564;2023-12-20T06:43:46;5.90;99.90
20750;DHT22;10535;50.664;4.564;2023-12-20T06:46:15;5.90;99.90
20750;DHT22;10535;50.664;4.564;2023-12-20T06:48:46;5.90;99.90
20750;DHT22;10535;50.664;4.564;2023-12-20T06:51:16;5.90;99.90
20750;DHT22;10535;50.664;4.564;2023-12-20T06:53:42;5.90;99.90
20750;DHT22;10535;50.664;4.564;2023-12-20T06:56:12;5.80;99.90
20750;DHT22;10535;50.664;4.564;2023-12-20T06:58:41;5.90;99.90
20750;DHT22;10535;50.664;4.564;2023-12-20T07:01:11;5.90;99.90
20750;DHT22;10535;50.664;4.564;2023-12-20T07:03:37;5.90;99.90
20750;DHT22;10535;50.664;4.564;2023-12-20T07:06:03;5.90;99.90
20750;DHT22;10535;50.664;4.564;2023-12-20T07:08:29;6.00;99.90
20750;DHT22;10535;50.664;4.564;2023-12-20T07:10:54;5.80;99.90
20750;DHT22;10535;50.664;4.564;2023-12-20T07:13:20;5.80;99.90
20750;DHT22;10535;50.664;4.564;2023-12-20T07:15:45;5.70;99.90
20750;DHT22;10535;50.664;4.564;2023-12-20T07:18:11;5.50;99.90
20750;DHT22;10535;50.664;4.564;2023-12-20T07:20:42;5.50;99.90
20750;DHT22;10535;50.664;4.564;2023-12-20T07:23:08;5.50;99.90
20750;DHT22;10535;50.664;4.564;2023-12-20T07:25:34;5.20;99.90
20750;DHT22;10535;50.664;4.564;2023-12-20T07:28:00;5.30;99.90
20750;DHT22;10535;50.664;4.564;2023-12-20T07:30:26;5.40;99.90
20750;DHT22;10535;50.664;4.564;2023-12-20T07:32:51;5.40;99.90
20750;DHT22;10535;50.664;4.564;2023-12-20T07:35:18;5.40;99.90
20750;DHT22;10535;50.664;4.564;2023-12-20T07:37:44;5.30;99.90
20750;DHT22;10535;50.664;4.564;2023-12-20T07:40:10;5.30;99.90
20750;DHT22;10535;50.664;4.564;2023-12-20T07:42:36;5.30;99.90
20750;DHT22;10535;50.664;4.564;2023-12-20T07:45:01;5.30;99.90
20750;DHT22;10535;50.664;4.564;2023-12-20T07:47:27;5.20;99.90
20750;DHT22;10535;50.664;4.564;2023-12-20T07:49:53;5.30;99.90
20750;DHT22;10535;50.664;4.564;2023-12-20T07:52:19;5.30;99.90
20750;DHT22;10535;50.664;4.564;2023-12-20T07:54:45;5.20;99.90
20750;DHT22;10535;50.664;4.564;2023-12-20T07:57:11;5.20;99.90
20750;DHT22;10535;50.664;4.564;2023-12-20T07:59:37;5.20;99.90
20750;DHT22;10535;50.664;4.564;2023-12-20T08:02:03;5.30;99.90
20750;DHT22;10535;50.664;4.564;2023-12-20T08:04:29;5.20;99.90
20750;DHT22;10535;50.664;4.564;2023-12-20T08:06:54;5.30;99.90
20750;DHT22;10535;50.664;4.564;2023-12-20T08:09:20;5.30;99.90
20750;DHT22;10535;50.664;4.564;2023-12-20T08:11:49;5.20;99.90
20750;DHT22;10535;50.664;4.564;2023-12-20T08:14:15;5.30;99.90
20750;DHT22;10535;50.664;4.564;2023-12-20T08:16:41;5.30;99.90
20750;DHT22;10535;50.664;4.564;2023-12-20T08:19:06;5.30;99.90
20750;DHT22;10535;50.664;4.564;2023-12-20T08:21:32;5.30;99.90
20750;DHT22;10535;50.664;4.564;2023-12-20T08:23:57;5.40;99.90
20750;DHT22;10535;50.664;4.564;2023-12-20T08:26:23;5.40;99.90
20750;DHT22;10535;50.664;4.564;2023-12-20T08:28:50;5.50;99.90
20750;DHT22;10535;50.664;4.564;2023-12-20T08:31:16;5.50;99.90
20750;DHT22;10535;50.664;4.564;2023-12-20T08:33:47;5.60;99.90
20750;DHT22;10535;50.664;4.564;2023-12-20T08:36:13;5.60;99.90
20750;DHT22;10535;50.664;4.564;2023-12-20T08:38:39;5.70;99.90
20750;DHT22;10535;50.664;4.564;2023-12-20T08:41:06;5.80;99.90
20750;DHT22;10535;50.664;4.564;2023-12-20T08:43:32;5.80;99.90
20750;DHT22;10535;50.664;4.564;2023-12-20T08:45:59;5.80;99.90
20750;DHT22;10535;50.664;4.564;2023-12-20T08:48:24;5.80;99.90
20750;DHT22;10535;50.664;4.564;2023-12-20T08:50:50;6.00;99.90
20750;DHT22;10535;50.664;4.564;2023-12-20T08:53:18;5.90;99.90
20750;DHT22;10535;50.664;4.564;2023-12-20T08:55:44;5.80;99.90
20750;DHT22;10535;50.664;4.564;2023-12-20T08:58:10;5.90;99.90
20750;DHT22;10535;50.664;4.564;2023-12-20T09:00:37;5.90;99.90
20750;DHT22;10535;50.664;4.564;2023-12-20T09:03:04;5.90;99.90
20750;DHT22;10535;50.664;4.564;2023-12-20T09:05:30;6.00;99.90
20750;DHT22;10535;50.664;4.564;2023-12-20T09:07:57;6.10;99.90
20750;DHT22;10535;50.664;4.564;2023-12-20T09:10:23;6.20;99.90
20750;DHT22;10535;50.664;4.564;2023-12-20T09:12:53;6.30;99.90
20750;DHT22;10535;50.664;4.564;2023-12-20T09:15:26;6.40;99.90
20750;DHT22;10535;50.664;4.564;2023-12-20T09:17:52;6.40;99.90
20750;DHT22;10535;50.664;4.564;2023-12-20T09:20:19;6.40;99.90
20750;DHT22;10535;50.664;4.564;2023-12-20T09:22:44;6.50;99.90
20750;DHT22;10535;50.664;4.564;2023-12-20T09:25:10;6.50;99.90
20750;DHT22;10535;50.664;4.564;2023-12-20T09:27:38;6.60;99.90
20750;DHT22;10535;50.664;4.564;2023-12-20T09:30:04;6.60;99.90
20750;DHT22;10535;50.664;4.564;2023-12-20T09:32:31;6.60;99.90
20750;DHT22;10535;50.664;4.564;2023-12-20T09:34:56;6.70;99.90
20750;DHT22;10535;50.664;4.564;2023-12-20T09:37:25;6.70;99.90
20750;DHT22;10535;50.664;4.564;2023-12-20T09:39:51;6.70;99.90
20750;DHT22;10535;50.664;4.564;2023-12-20T09:42:24;6.70;99.90
20750;DHT22;10535;50.664;4.564;2023-12-20T09:44:55;6.90;99.90
20750;DHT22;10535;50.664;4.564;2023-12-20T09:47:23;6.90;99.90
20750;DHT22;10535;50.664;4.564;2023-12-20T09:49:50;7.00;99.90
20750;DHT22;10535;50.664;4.564;2023-12-20T09:52:18;7.00;99.90
20750;DHT22;10535;50.664;4.564;2023-12-20T09:54:44;7.20;99.90
20750;DHT22;10535;50.664;4.564;2023-12-20T09:57:11;7.30;99.90
20750;DHT22;10535;50.664;4.564;2023-12-20T09:59:36;7.50;99.90
20750;DHT22;10535;50.664;4.564;2023-12-20T10:02:06;7.70;99.90
20750;DHT22;10535;50.664;4.564;2023-12-20T10:04:35;7.60;99.90
20750;DHT22;10535;50.664;4.564;2023-12-20T10:07:02;7.60;99.90
20750;DHT22;10535;50.664;4.564;2023-12-20T10:09:31;7.70;99.90
20750;DHT22;10535;50.664;4.564;2023-12-20T10:11:57;7.80;99.90
20750;DHT22;10535;50.664;4.564;2023-12-20T10:14:23;7.80;99.90
20750;DHT22;10535;50.664;4.564;2023-12-20T10:16:49;7.90;99.90
20750;DHT22;10535;50.664;4.564;2023-12-20T10:19:17;7.90;99.90
20750;DHT22;10535;50.664;4.564;2023-12-20T10:21:43;8.00;99.90
20750;DHT22;10535;50.664;4.564;2023-12-20T10:24:17;8.00;99.90
20750;DHT22;10535;50.664;4.564;2023-12-20T10:29:12;8.00;99.90
20750;DHT22;10535;50.664;4.564;2023-12-20T10:31:38;8.00;99.90
20750;DHT22;10535;50.664;4.564;2023-12-20T10:34:04;8.20;99.90
20750;DHT22;10535;50.664;4.564;2023-12-20T10:36:33;8.20;99.90
20750;DHT22;10535;50.664;4.564;2023-12-20T10:38:59;8.10;99.90
20750;DHT22;10535;50.664;4.564;2023-12-20T10:41:30;8.20;99.90
20750;DHT22;10535;50.664;4.564;2023-12-20T10:44:01;8.20;99.90
20750;DHT22;10535;50.664;4.564;2023-12-20T10:46:28;8.20;99.90
20750;DHT22;10535;50.664;4.564;2023-12-20T10:48:55;8.10;99.90
20750;DHT22;10535;50.664;4.564;2023-12-20T10:51:22;8.00;99.90
20750;DHT22;10535;50.664;4.564;2023-12-20T10:53:49;8.20;99.90
20750;DHT22;10535;50.664;4.564;2023-12-20T10:56:17;8.20;99.90
20750;DHT22;10535;50.664;4.564;2023-12-20T10:58:43;8.40;99.90
20750;DHT22;10535;50.664;4.564;2023-12-20T11:01:13;8.60;99.90
20750;DHT22;10535;50.664;4.564;2023-12-20T11:03:43;8.80;99.90
20750;DHT22;10535;50.664;4.564;2023-12-20T11:14:47;8.80;99.90
20750;DHT22;10535;50.664;4.564;2023-12-20T11:17:13;8.70;99.90
20750;DHT22;10535;50.664;4.564;2023-12-20T11:22:25;8.70;99.90
20750;DHT22;10535;50.664;4.564;2023-12-20T11:24:53;8.80;99.90
20750;DHT22;10535;50.664;4.564;2023-12-20T11:27:19;8.80;99.90
20750;DHT22;10535;50.664;4.564;2023-12-20T11:29:53;8.80;99.90
20750;DHT22;10535;50.664;4.564;2023-12-20T11:32:28;8.70;99.90
20750;DHT22;10535;50.664;4.564;2023-12-20T11:37:40;8.70;99.90
20750;DHT22;10535;50.664;4.564;2023-12-20T11:40:13;8.70;99.90
20750;DHT22;10535;50.664;4.564;2023-12-20T11:42:49;8.80;99.90
20750;DHT22;10535;50.664;4.564;2023-12-20T11:45:18;8.80;99.90
20750;DHT22;10535;50.664;4.564;2023-12-20T11:47:47;8.80;99.90
20750;DHT22;10535;50.664;4.564;2023-12-20T11:50:17;8.90;99.90
20750;DHT22;10535;50.664;4.564;2023-12-20T11:52:43;9.00;99.90
20750;DHT22;10535;50.664;4.564;2023-12-20T11:55:09;8.90;99.90
20750;DHT22;10535;50.664;4.564;2023-12-20T11:57:36;8.90;99.90
20750;DHT22;10535;50.664;4.564;2023-12-20T12:00:02;8.90;99.90
20750;DHT22;10535;50.664;4.564;2023-12-20T12:02:28;9.00;99.90
20750;DHT22;10535;50.664;4.564;2023-12-20T12:04:54;9.20;99.90
20750;DHT22;10535;50.664;4.564;2023-12-20T12:07:21;9.10;99.90
20750;DHT22;10535;50.664;4.564;2023-12-20T12:09:47;9.20;99.90
20750;DHT22;10535;50.664;4.564;2023-12-20T12:12:13;9.20;99.90
20750;DHT22;10535;50.664;4.564;2023-12-20T12:14:39;9.30;99.90
20750;DHT22;10535;50.664;4.564;2023-12-20T12:17:10;9.30;99.90
20750;DHT22;10535;50.664;4.564;2023-12-20T12:19:37;9.30;99.90
20750;DHT22;10535;50.664;4.564;2023-12-20T12:22:15;9.30;99.90
20750;DHT22;10535;50.664;4.564;2023-12-20T12:24:46;9.10;99.90
20750;DHT22;10535;50.664;4.564;2023-12-20T12:27:13;9.10;99.90
20750;DHT22;10535;50.664;4.564;2023-12-20T12:29:40;9.00;99.90
20750;DHT22;10535;50.664;4.564;2023-12-20T12:32:09;8.80;99.90
20750;DHT22;10535;50.664;4.564;2023-12-20T12:34:35;8.90;99.90
20750;DHT22;10535;50.664;4.564;2023-12-20T12:37:03;8.90;99.90
20750;DHT22;10535;50.664;4.564;2023-12-20T12:39:29;9.00;99.90
20750;DHT22;10535;50.664;4.564;2023-12-20T12:41:55;9.00;99.90
20750;DHT22;10535;50.664;4.564;2023-12-20T12:44:21;9.10;99.90
20750;DHT22;10535;50.664;4.564;2023-12-20T12:46:49;9.10;99.90
20750;DHT22;10535;50.664;4.564;2023-12-20T12:49:19;9.20;99.90
20750;DHT22;10535;50.664;4.564;2023-12-20T12:51:45;9.10;99.90
20750;DHT22;10535;50.664;4.564;2023-12-20T12:54:12;8.90;99.90
20750;DHT22;10535;50.664;4.564;2023-12-20T12:56:39;8.80;99.90
20750;DHT22;10535;50.664;4.564;2023-12-20T12:59:05;8.80;99.90
20750;DHT22;10535;50.664;4.564;2023-12-20T13:01:31;8.80;99.90
20750;DHT22;10535;50.664;4.564;2023-12-20T13:03:57;8.90;99.90
20750;DHT22;10535;50.664;4.564;2023-12-20T13:06:23;8.80;99.90
20750;DHT22;10535;50.664;4.564;2023-12-20T13:08:49;8.90;99.90
20750;DHT22;10535;50.664;4.564;2023-12-20T13:11:14;8.90;99.90
20750;DHT22;10535;50.664;4.564;2023-12-20T13:13:40;9.00;99.90
20750;DHT22;10535;50.664;4.564;2023-12-20T13:16:06;9.20;99.90
20750;DHT22;10535;50.664;4.564;2023-12-20T13:18:31;9.20;99.90
20750;DHT22;10535;50.664;4.564;2023-12-20T13:20:57;9.20;99.90
20750;DHT22;10535;50.664;4.564;2023-12-20T13:23:23;9.20;99.90
20750;DHT22;10535;50.664;4.564;2023-12-20T13:25:49;9.10;99.90
20750;DHT22;10535;50.664;4.564;2023-12-20T13:28:14;9.20;99.90
20750;DHT22;10535;50.664;4.564;2023-12-20T13:30:40;9.20;99.90
20750;DHT22;10535;50.664;4.564;2023-12-20T13:33:06;9.10;99.90
20750;DHT22;10535;50.664;4.564;2023-12-20T13:35:32;9.00;99.90
20750;DHT22;10535;50.664;4.564;2023-12-20T13:37:58;9.00;99.90
20750;DHT22;10535;50.664;4.564;2023-12-20T13:40:25;9.00;99.90
20750;DHT22;10535;50.664;4.564;2023-12-20T13:42:50;9.10;99.90
20750;DHT22;10535;50.664;4.564;2023-12-20T13:45:16;9.10;99.90
20750;DHT22;10535;50.664;4.564;2023-12-20T13:47:42;9.30;99.90
20750;DHT22;10535;50.664;4.564;2023-12-20T13:50:07;9.20;99.90
20750;DHT22;10535;50.664;4.564;2023-12-20T13:52:34;9.20;99.90
20750;DHT22;10535;50.664;4.564;2023-12-20T13:55:00;9.00;99.90
20750;DHT22;10535;50.664;4.564;2023-12-20T13:57:25;8.90;99.90
20750;DHT22;10535;50.664;4.564;2023-12-20T13:59:51;8.90;99.90
20750;DHT22;10535;50.664;4.564;2023-12-20T14:02:17;8.90;99.90
20750;DHT22;10535;50.664;4.564;2023-12-20T14:04:42;9.00;99.90
20750;DHT22;10535;50.664;4.564;2023-12-20T14:07:08;9.00;99.90
20750;DHT22;10535;50.664;4.564;2023-12-20T14:09:35;9.20;99.90
20750;DHT22;10535;50.664;4.564;2023-12-20T14:12:01;9.10;99.90
20750;DHT22;10535;50.664;4.564;2023-12-20T14:14:26;9.20;99.90
20750;DHT22;10535;50.664;4.564;2023-12-20T14:16:52;9.30;99.90
20750;DHT22;10535;50.664;4.564;2023-12-20T14:19:17;9.20;99.90
20750;DHT22;10535;50.664;4.564;2023-12-20T14:21:43;9.20;99.90
20750;DHT22;10535;50.664;4.564;2023-12-20T14:24:12;9.20;99.90
20750;DHT22;10535;50.664;4.564;2023-12-20T14:26:43;9.20;99.90
20750;DHT22;10535;50.664;4.564;2023-12-20T14:29:08;9.40;99.90
20750;DHT22;10535;50.664;4.564;2023-12-20T14:31:34;9.30;99.90
20750;DHT22;10535;50.664;4.564;2023-12-20T14:34:00;9.30;99.90
20750;DHT22;10535;50.664;4.564;2023-12-20T14:36:29;9.20;99.90
20750;DHT22;10535;50.664;4.564;2023-12-20T14:38:56;9.20;99.90
20750;DHT22;10535;50.664;4.564;2023-12-20T14:41:22;9.30;99.90
20750;DHT22;10535;50.664;4.564;2023-12-20T14:43:50;9.40;99.90
20750;DHT22;10535;50.664;4.564;2023-12-20T14:46:17;9.40;99.90
20750;DHT22;10535;50.664;4.564;2023-12-20T14:48:43;9.40;99.90
20750;DHT22;10535;50.664;4.564;2023-12-20T14:51:08;9.40;99.90
20750;DHT22;10535;50.664;4.564;2023-12-20T14:53:34;9.40;99.90
20750;DHT22;10535;50.664;4.564;2023-12-20T14:56:03;9.40;99.90
20750;DHT22;10535;50.664;4.564;2023-12-20T14:58:29;9.40;99.90
20750;DHT22;10535;50.664;4.564;2023-12-20T15:00:58;9.40;99.90
20750;DHT22;10535;50.664;4.564;2023-12-20T15:03:24;9.40;99.90
20750;DHT22;10535;50.664;4.564;2023-12-20T15:05:49;9.50;99.90
20750;DHT22;10535;50.664;4.564;2023-12-20T15:08:15;9.40;99.90
20750;DHT22;10535;50.664;4.564;2023-12-20T15:10:41;9.50;99.90
20750;DHT22;10535;50.664;4.564;2023-12-20T15:13:07;9.40;99.90
20750;DHT22;10535;50.664;4.564;2023-12-20T15:15:33;9.50;99.90
20750;DHT22;10535;50.664;4.564;2023-12-20T15:17:59;9.50;99.90
20750;DHT22;10535;50.664;4.564;2023-12-20T15:20:25;9.60;99.90
20750;DHT22;10535;50.664;4.564;2023-12-20T15:22:50;9.50;99.90
20750;DHT22;10535;50.664;4.564;2023-12-20T15:25:16;9.50;99.90
20750;DHT22;10535;50.664;4.564;2023-12-20T15:27:48;9.60;99.90
20750;DHT22;10535;50.664;4.564;2023-12-20T15:30:19;9.40;99.90
20750;DHT22;10535;50.664;4.564;2023-12-20T15:32:45;9.50;99.90
20750;DHT22;10535;50.664;4.564;2023-12-20T15:35:11;9.50;99.90
20750;DHT22;10535;50.664;4.564;2023-12-20T15:37:38;9.50;99.90
20750;DHT22;10535;50.664;4.564;2023-12-20T15:40:04;9.60;99.90
20750;DHT22;10535;50.664;4.564;2023-12-20T15:42:30;9.50;99.90
20750;DHT22;10535;50.664;4.564;2023-12-20T15:44:57;9.40;99.90
20750;DHT22;10535;50.664;4.564;2023-12-20T15:47:23;9.60;99.90
20750;DHT22;10535;50.664;4.564;2023-12-20T15:49:49;9.40;99.90
20750;DHT22;10535;50.664;4.564;2023-12-20T15:52:15;9.40;99.90
20750;DHT22;10535;50.664;4.564;2023-12-20T15:54:40;9.40;99.90
20750;DHT22;10535;50.664;4.564;2023-12-20T15:57:07;9.40;99.90
20750;DHT22;10535;50.664;4.564;2023-12-20T15:59:32;9.60;99.90